x

Newport, Or (nwpo3) Weather Station

9:00am - Tue 16th Oct 2018 All times are PDT. -7 hours from GMT.

  • Wind
    16mph, 21mph gusts
  • Air Temp 62°f
  • Sea Pressure 1022mb
  • Newport, Or
  • Newport, Or

More Historic Weather Station data

Upgrade to MSW Pro to gain access to the past 30 days of data for over 8000 Wavebouys and Weather Stations around the globe.

Join

Comparision Forecast

View Surf forecast
   
Tue 10/16 9:00am 16 21 mph 1022mb 62f
8:00am 15 17 mph 1021.7mb 60f
7:00am 10 13 mph 1021.8mb 58f
6:00am 11 14 mph 1021.9mb 57f
5:00am 8 9 mph 1022.1mb 58f
4:00am 3 5 mph 1022.2mb 55f
3:00am 2 2 mph 1022.4mb 57f
2:00am 1 2 mph 1022.4mb 54f
1:00am 2 3 mph 1022.2mb 54f
12:00am 5 5 mph 1022mb 51f
Mon 10/15 11:00pm 3 3 mph 1022.1mb 54f
10:00pm 1 2 mph 1021.8mb 54f
9:00pm  -  1 mph 1021.8mb 59f
8:00pm 3 5 mph 1021.6mb 61f
7:00pm 2 3 mph 1021.4mb 59f
6:00pm 3 3 mph 1021.3mb 64f
5:00pm 8 9 mph 1021.3mb 60f
4:00pm 11 13 mph 1021.6mb -
3:00pm 8 10 mph 1021.9mb -
1:00pm 9 13 mph 1022.6mb 73f
12:00pm 11 16 mph 1022.7mb 70f
11:00am 15 21 mph 1022.8mb 66f
10:00am 14 18 mph 1022.7mb 63f
9:00am 14 20 mph 1022.6mb 60f
8:00am 16 21 mph 1022.2mb 58f
7:00am 17 25 mph 1022mb 59f
6:00am 20 24 mph 1021.8mb 58f
5:00am 17 25 mph 1021.9mb 58f
4:00am 14 17 mph 1022.4mb 58f
3:00am 16 18 mph 1022.2mb 58f
2:00am 15 18 mph 1022.1mb 58f
1:00am 8 13 mph 1022.3mb 59f
12:00am 10 14 mph 1022.3mb 60f
Sun 10/14 11:00pm 10 15 mph 1022.1mb 62f
10:00pm 13 15 mph 1021.7mb 63f
9:00pm 8 9 mph 1021.8mb 63f
8:00pm 7 8 mph 1021.9mb 64f
7:00pm 11 15 mph 1021.5mb 67f
6:00pm 13 17 mph 1021.1mb 69f
5:00pm 13 16 mph 1021.4mb 70f
4:00pm 18 25 mph 1021.6mb 71f
3:00pm 18 24 mph 1021.7mb 70f
2:00pm 17 23 mph 1021.7mb 69f
1:00pm 17 23 mph 1022.2mb 67f
12:00pm 14 17 mph 1022.4mb 65f
11:00am 13 17 mph 1022.7mb 63f
10:00am 11 15 mph 1022.9mb 60f
9:00am 9 11 mph 1022.6mb 57f
8:00am 16 20 mph 1022mb 57f
7:00am 16 22 mph 1021.3mb 57f
6:00am 9 13 mph 1021.1mb 58f
5:00am 11 17 mph 1020.5mb 58f
4:00am 11 20 mph 1020.5mb 59f
3:00am 9 14 mph 1020.1mb 59f
1:00am 8 10 mph 1019.6mb 59f
12:00am 7 9 mph 1019.5mb 60f
Sat 10/13 11:00pm 3 5 mph 1019.5mb 59f
10:00pm 2 3 mph 1019.5mb 59f
9:00pm 11 13 mph 1019.4mb 60f
8:00pm 13 14 mph 1019mb 63f
7:00pm 10 11 mph 1018.9mb 66f
6:00pm 10 13 mph 1018.6mb 69f
5:00pm 11 14 mph 1018.6mb 71f
4:00pm 14 18 mph 1018.7mb 71f
3:00pm 10 14 mph 1019.2mb -
2:00pm 10 13 mph 1019.7mb 57f
1:00pm 10 13 mph 1019.8mb 54f
12:00pm 13 16 mph 1019.9mb 62f
11:00am 11 15 mph 1020.4mb 57f
10:00am 10 13 mph 1020.3mb 53f
9:00am 7 9 mph 1020.1mb 48f
7:00am 5 6 mph 1019.7mb 48f
6:00am 6 7 mph 1019.4mb 50f
5:00am 6 7 mph 1019mb 50f
4:00am 5 6 mph 1018.9mb 51f
3:00am 7 7 mph 1019mb 52f
2:00am 5 5 mph 1018.9mb 52f
1:00am 5 5 mph 1018.8mb 53f
12:00am 10 11 mph 1018.7mb 53f
Fri 10/12 11:00pm 3 5 mph 1018.5mb 53f
10:00pm 21 23 mph 1018mb 53f
9:00pm 22 24 mph 1017.7mb 54f
8:00pm 21 24 mph 1017.6mb 54f
7:00pm 26 31 mph 1017.1mb 53f
6:00pm 31 34 mph 1017mb 54f